createdAt,value
2017-11-08T00:00:38.522Z,14.27
2017-11-08T00:03:07.420Z,15.10
2017-11-08T00:05:35.396Z,14.83
2017-11-08T00:08:03.182Z,15.00
2017-11-08T00:10:31.395Z,13.90
2017-11-08T00:12:59.201Z,14.93
2017-11-08T00:15:26.635Z,14.43
2017-11-08T00:17:55.040Z,14.53
2017-11-08T00:20:22.520Z,15.40
2017-11-08T00:22:51.274Z,14.90
2017-11-08T00:25:19.652Z,16.00
2017-11-08T00:27:47.105Z,14.20
2017-11-08T00:30:14.767Z,14.67
2017-11-08T00:32:42.219Z,13.97
2017-11-08T00:35:09.687Z,14.97
2017-11-08T00:37:37.519Z,14.20
2017-11-08T00:40:05.325Z,15.03
2017-11-08T00:42:33.070Z,15.50
2017-11-08T00:45:01.570Z,14.37
2017-11-08T00:47:32.010Z,14.73
2017-11-08T00:50:00.716Z,14.40
2017-11-08T00:52:28.739Z,15.13
2017-11-08T00:54:56.187Z,14.23
2017-11-08T00:57:29.901Z,14.10
2017-11-08T00:59:59.532Z,15.90
2017-11-08T01:02:27.016Z,14.63
2017-11-08T01:04:54.753Z,14.63
2017-11-08T01:07:23.374Z,15.70
2017-11-08T01:09:50.964Z,14.93
2017-11-08T01:12:18.452Z,91.20
2017-11-08T01:14:46.671Z,75.77
2017-11-08T01:17:14.808Z,50.20
2017-11-08T01:19:42.281Z,33.20
2017-11-08T01:22:10.777Z,19.87
2017-11-08T01:24:38.802Z,16.57
2017-11-08T01:27:06.244Z,14.53
2017-11-08T01:29:34.911Z,15.50
2017-11-08T01:32:02.649Z,14.80
2017-11-08T01:34:30.105Z,14.07
2017-11-08T01:37:18.350Z,14.60
2017-11-08T01:39:46.849Z,14.90
2017-11-08T01:42:16.673Z,16.03
2017-11-08T01:44:49.020Z,15.90
2017-11-08T01:47:17.184Z,15.30
2017-11-08T01:49:47.950Z,15.60
2017-11-08T01:52:17.212Z,15.77
2017-11-08T01:54:45.630Z,14.80
2017-11-08T01:57:14.178Z,15.67
2017-11-08T01:59:41.634Z,14.90
2017-11-08T02:02:09.532Z,14.77
2017-11-08T02:04:37.572Z,14.90
2017-11-08T02:07:06.291Z,15.10
2017-11-08T02:09:33.733Z,14.70
2017-11-08T02:12:02.197Z,13.70
2017-11-08T02:14:29.751Z,16.43
2017-11-08T02:16:57.669Z,15.17
2017-11-08T02:19:25.130Z,15.10
2017-11-08T02:21:53.339Z,15.43
2017-11-08T02:24:21.217Z,15.63
2017-11-08T02:26:52.570Z,15.20
2017-11-08T02:29:21.180Z,15.77
2017-11-08T02:31:49.119Z,14.73
2017-11-08T02:34:16.600Z,15.10
2017-11-08T02:36:44.130Z,14.93
2017-11-08T02:39:11.833Z,16.33
2017-11-08T02:41:39.581Z,15.80
2017-11-08T02:44:07.627Z,15.63
2017-11-08T02:46:35.184Z,15.80
2017-11-08T02:49:03.381Z,17.37
2017-11-08T02:51:30.835Z,14.73
2017-11-08T02:53:58.723Z,14.80
2017-11-08T02:56:26.185Z,17.57
2017-11-08T02:58:54.037Z,74.10
2017-11-08T03:01:23.469Z,49.13
2017-11-08T03:03:52.104Z,69.03
2017-11-08T03:06:19.802Z,40.00
2017-11-08T03:08:47.545Z,23.17
2017-11-08T03:11:14.984Z,17.23
2017-11-08T03:13:42.454Z,17.60
2017-11-08T03:16:09.899Z,16.67
2017-11-08T03:18:38.088Z,15.50
2017-11-08T03:21:06.142Z,16.67
2017-11-08T03:23:34.951Z,17.80
2017-11-08T03:26:02.509Z,15.27
2017-11-08T03:28:31.404Z,15.90
2017-11-08T03:30:58.966Z,17.83
2017-11-08T03:33:26.480Z,18.30
2017-11-08T03:35:53.923Z,16.10
2017-11-08T03:38:21.386Z,16.80
2017-11-08T03:40:49.669Z,16.03
2017-11-08T03:43:17.739Z,15.33
2017-11-08T03:45:45.180Z,16.10
2017-11-08T03:48:12.796Z,15.90
2017-11-08T03:50:40.550Z,16.20
2017-11-08T03:53:08.357Z,15.53
2017-11-08T03:55:37.821Z,15.37
2017-11-08T03:58:05.621Z,15.67
2017-11-08T04:00:33.827Z,15.10
2017-11-08T04:03:01.292Z,15.43
2017-11-08T04:05:29.508Z,15.67
2017-11-08T04:07:57.361Z,16.00
2017-11-08T04:10:24.826Z,15.67
2017-11-08T04:12:53.068Z,16.57
2017-11-08T04:15:20.529Z,17.07
2017-11-08T04:17:48.021Z,17.20
2017-11-08T04:20:16.499Z,15.43
2017-11-08T04:22:43.950Z,16.93
2017-11-08T04:25:11.433Z,16.17
2017-11-08T04:27:39.641Z,15.87
2017-11-08T04:30:07.458Z,15.10
2017-11-08T04:32:35.702Z,16.03
2017-11-08T04:35:03.179Z,16.20
2017-11-08T04:37:30.690Z,16.07
2017-11-08T04:39:58.134Z,14.80
2017-11-08T04:42:27.066Z,15.73
2017-11-08T04:44:54.845Z,16.60
2017-11-08T04:47:22.360Z,15.87
2017-11-08T04:49:50.290Z,16.30
2017-11-08T04:52:18.867Z,17.13
2017-11-08T04:54:47.356Z,16.30
2017-11-08T04:57:16.850Z,17.23
2017-11-08T04:59:45.090Z,15.43
2017-11-08T05:02:12.561Z,16.07
2017-11-08T05:04:40.417Z,16.30
2017-11-08T05:07:08.697Z,16.17
2017-11-08T05:09:37.451Z,14.70
2017-11-08T05:12:04.908Z,16.10
2017-11-08T05:14:32.709Z,16.57
2017-11-08T05:17:00.963Z,17.00
2017-11-08T05:19:28.411Z,16.30
2017-11-08T05:21:56.549Z,15.30
2017-11-08T05:24:25.058Z,16.43
2017-11-08T05:26:52.488Z,18.47
2017-11-08T05:29:21.132Z,15.73
2017-11-08T05:31:48.860Z,16.53
2017-11-08T05:34:16.420Z,16.97
2017-11-08T05:36:43.902Z,17.10
2017-11-08T05:39:11.439Z,15.20
2017-11-08T05:41:39.884Z,16.77
2017-11-08T05:44:08.428Z,17.80
2017-11-08T05:46:35.882Z,71.07
2017-11-08T05:51:47.842Z,18.10
2017-11-08T05:54:16.686Z,17.27
2017-11-08T05:56:44.210Z,17.20
2017-11-08T05:59:11.915Z,15.53
2017-11-08T06:01:40.485Z,16.40
2017-11-08T06:04:08.149Z,17.90
2017-11-08T06:06:35.614Z,17.40
2017-11-08T06:09:03.746Z,17.47
2017-11-08T06:11:31.197Z,16.10
2017-11-08T06:13:58.667Z,16.93
2017-11-08T06:16:26.114Z,17.60
2017-11-08T06:18:53.590Z,17.07
2017-11-08T06:21:21.049Z,17.77
2017-11-08T06:23:48.614Z,18.83
2017-11-08T06:26:16.180Z,16.23
2017-11-08T06:28:44.866Z,17.07
2017-11-08T06:31:12.345Z,17.87
2017-11-08T06:33:39.816Z,15.73
2017-11-08T06:36:08.561Z,17.47
2017-11-08T06:38:36.387Z,16.87
2017-11-08T06:41:03.855Z,17.00
2017-11-08T06:43:32.576Z,17.80
2017-11-08T06:46:00.797Z,17.20
2017-11-08T06:48:30.625Z,18.10
2017-11-08T06:51:00.297Z,18.27
2017-11-08T06:53:28.561Z,17.70
2017-11-08T06:56:15.275Z,17.37
2017-11-08T06:58:44.745Z,16.70
2017-11-08T07:01:12.221Z,17.87
2017-11-08T07:03:40.739Z,16.53
2017-11-08T07:06:08.967Z,15.77
2017-11-08T07:08:38.286Z,16.33
2017-11-08T07:11:05.759Z,16.30
2017-11-08T07:13:33.970Z,15.87
2017-11-08T07:16:01.442Z,18.80
2017-11-08T07:18:29.440Z,18.50
2017-11-08T07:20:57.795Z,17.07
2017-11-08T07:23:25.563Z,18.20
2017-11-08T07:25:53.224Z,16.40
2017-11-08T07:28:22.430Z,17.80
2017-11-08T07:30:51.424Z,17.80
2017-11-08T07:33:18.874Z,16.30
2017-11-08T07:35:46.324Z,16.17
2017-11-08T07:38:13.810Z,19.00
2017-11-08T07:40:41.694Z,15.83
2017-11-08T07:43:10.334Z,17.23
2017-11-08T07:45:38.229Z,16.70
2017-11-08T07:48:06.468Z,17.83
2017-11-08T07:50:35.894Z,17.43
2017-11-08T07:53:03.346Z,16.77
2017-11-08T07:55:37.541Z,17.03
2017-11-08T07:58:05.757Z,18.17
2017-11-08T08:00:33.978Z,18.10
2017-11-08T08:03:01.424Z,18.80
2017-11-08T08:05:29.317Z,17.03
2017-11-08T08:07:58.724Z,17.17
2017-11-08T08:10:26.396Z,17.90
2017-11-08T08:12:55.333Z,18.17
2017-11-08T08:15:24.000Z,17.60
2017-11-08T08:17:52.333Z,17.90
2017-11-08T08:20:19.805Z,45.57
2017-11-08T08:22:47.288Z,74.60
2017-11-08T08:25:15.666Z,43.20
2017-11-08T08:27:43.895Z,21.30
2017-11-08T08:30:11.552Z,18.13
2017-11-08T08:32:39.004Z,18.50
2017-11-08T08:35:06.457Z,18.13
2017-11-08T08:37:33.978Z,18.20
2017-11-08T08:40:01.506Z,18.13
2017-11-08T08:42:29.796Z,17.50
2017-11-08T08:44:57.791Z,19.03
2017-11-08T08:47:25.253Z,17.87
2017-11-08T08:49:53.259Z,18.40
2017-11-08T08:52:20.946Z,18.20
2017-11-08T08:54:50.022Z,18.13
2017-11-08T08:57:19.221Z,18.33
2017-11-08T08:59:46.755Z,17.63
2017-11-08T09:02:18.703Z,17.63
2017-11-08T09:04:46.747Z,18.70
2017-11-08T09:07:15.711Z,17.63
2017-11-08T09:09:44.685Z,17.60
2017-11-08T09:12:12.133Z,79.27
2017-11-08T09:14:39.713Z,27.00
2017-11-08T09:17:07.165Z,19.07
2017-11-08T09:19:34.642Z,18.60
2017-11-08T09:22:03.093Z,18.67
2017-11-08T09:24:31.373Z,18.50
2017-11-08T09:26:59.626Z,18.63
2017-11-08T09:29:28.942Z,19.00
2017-11-08T09:31:56.396Z,17.83
2017-11-08T09:34:24.797Z,19.37
2017-11-08T09:36:52.313Z,19.40
2017-11-08T09:39:19.863Z,18.00
2017-11-08T09:41:47.326Z,18.93
2017-11-08T09:44:15.329Z,17.20
2017-11-08T09:46:42.807Z,20.77
2017-11-08T09:49:11.544Z,20.77
2017-11-08T09:51:39.344Z,20.23
2017-11-08T09:54:08.645Z,17.67
2017-11-08T09:56:36.111Z,18.17
2017-11-08T09:59:04.125Z,18.30
2017-11-08T10:01:37.690Z,20.67
2017-11-08T10:04:05.437Z,19.57
2017-11-08T10:06:32.892Z,19.17
2017-11-08T10:09:02.700Z,17.93
2017-11-08T10:11:34.145Z,18.40
2017-11-08T10:14:01.601Z,17.77
2017-11-08T10:16:30.998Z,20.67
2017-11-08T10:18:58.505Z,19.27
2017-11-08T10:21:25.969Z,19.47
2017-11-08T10:23:54.551Z,20.60
2017-11-08T10:26:22.046Z,18.60
2017-11-08T10:28:49.492Z,18.80
2017-11-08T10:31:17.072Z,19.00
2017-11-08T10:33:44.635Z,19.40
2017-11-08T10:36:13.632Z,19.07
2017-11-08T10:38:41.284Z,19.30
2017-11-08T10:41:08.835Z,20.63
2017-11-08T10:43:36.585Z,19.53
2017-11-08T10:46:04.697Z,17.70
2017-11-08T10:48:34.378Z,19.77
2017-11-08T10:51:02.949Z,20.10
2017-11-08T10:53:31.184Z,19.10
2017-11-08T10:55:59.063Z,17.10
2017-11-08T10:58:27.015Z,21.00
2017-11-08T11:00:54.536Z,21.60
2017-11-08T11:03:26.895Z,19.90
2017-11-08T11:05:55.137Z,22.70
2017-11-08T11:08:23.232Z,21.80
2017-11-08T11:10:50.721Z,20.80
2017-11-08T11:13:18.947Z,19.53
2017-11-08T11:15:46.468Z,20.27
2017-11-08T11:18:13.979Z,20.90
2017-11-08T11:20:48.198Z,21.90
2017-11-08T11:23:15.650Z,20.60
2017-11-08T11:25:46.571Z,20.30
2017-11-08T11:28:14.050Z,19.97
2017-11-08T11:30:43.530Z,20.60
2017-11-08T11:33:11.030Z,21.37
2017-11-08T11:35:39.282Z,20.23
2017-11-08T11:38:10.732Z,20.20
2017-11-08T11:40:39.518Z,20.20
2017-11-08T11:43:07.729Z,21.17
2017-11-08T11:45:35.608Z,20.73
2017-11-08T11:48:03.339Z,21.50
2017-11-08T11:50:31.865Z,22.77
2017-11-08T11:52:59.801Z,21.40
2017-11-08T11:55:28.760Z,22.80
2017-11-08T11:57:56.627Z,22.67
2017-11-08T12:00:25.154Z,23.33
2017-11-08T12:02:52.609Z,21.67
2017-11-08T12:05:20.375Z,21.70
2017-11-08T12:07:49.154Z,22.07
2017-11-08T12:10:16.663Z,20.97
2017-11-08T12:12:44.117Z,22.37
2017-11-08T12:15:11.603Z,23.60
2017-11-08T12:17:39.058Z,20.70
2017-11-08T12:20:08.026Z,20.93
2017-11-08T12:22:35.712Z,22.67
2017-11-08T12:25:04.680Z,21.70
2017-11-08T12:27:32.141Z,24.97
2017-11-08T12:30:01.113Z,21.73
2017-11-08T12:32:29.004Z,22.67
2017-11-08T12:34:59.268Z,23.00
2017-11-08T12:37:27.615Z,24.10
2017-11-08T12:39:56.643Z,23.50
2017-11-08T12:42:26.787Z,23.53
2017-11-08T12:44:57.427Z,22.53
2017-11-08T12:47:24.979Z,24.20
2017-11-08T12:49:52.828Z,24.20
2017-11-08T12:52:20.951Z,24.17
2017-11-08T12:54:48.867Z,24.13
2017-11-08T12:57:17.206Z,24.50
2017-11-08T12:59:46.707Z,25.13
2017-11-08T13:02:15.289Z,24.97
2017-11-08T13:04:43.051Z,25.57
2017-11-08T13:07:11.636Z,26.20
2017-11-08T13:09:39.873Z,25.50
2017-11-08T13:12:10.215Z,25.83
2017-11-08T13:14:37.687Z,23.90
2017-11-08T13:17:05.651Z,24.10
2017-11-08T13:19:33.118Z,25.50
2017-11-08T13:22:00.585Z,25.37
2017-11-08T13:24:28.354Z,25.87
2017-11-08T13:26:56.573Z,29.03
2017-11-08T13:29:24.124Z,24.47
2017-11-08T13:31:51.592Z,25.30
2017-11-08T13:34:19.106Z,26.50
2017-11-08T13:36:47.360Z,24.17
2017-11-08T13:39:15.595Z,24.30
2017-11-08T13:41:43.497Z,26.20
2017-11-08T13:44:12.004Z,26.17
2017-11-08T13:46:41.070Z,25.67
2017-11-08T13:49:09.055Z,26.50
2017-11-08T13:51:37.316Z,25.87
2017-11-08T13:54:05.499Z,27.17
2017-11-08T13:56:33.206Z,24.90
2017-11-08T13:59:01.431Z,26.40
2017-11-08T14:01:28.879Z,24.47
2017-11-08T14:03:57.325Z,27.17
2017-11-08T14:06:24.763Z,26.33
2017-11-08T14:08:53.619Z,26.80
2017-11-08T14:11:21.096Z,25.67
2017-11-08T14:13:49.722Z,25.87
2017-11-08T14:16:17.180Z,26.10
2017-11-08T14:18:44.656Z,25.40
2017-11-08T14:21:13.066Z,26.70
2017-11-08T14:23:40.552Z,26.10
2017-11-08T14:26:08.005Z,25.77
2017-11-08T14:28:35.550Z,25.53
2017-11-08T14:31:03.754Z,26.27
2017-11-08T14:33:31.210Z,25.77
2017-11-08T14:35:58.702Z,27.47
2017-11-08T14:38:26.266Z,26.03
2017-11-08T14:40:56.601Z,26.97
2017-11-08T14:43:25.179Z,26.70
2017-11-08T14:45:52.682Z,26.60
2017-11-08T14:48:21.125Z,26.90
2017-11-08T14:50:48.606Z,26.90
2017-11-08T14:53:33.742Z,26.53
2017-11-08T14:56:01.530Z,26.43
2017-11-08T14:58:30.330Z,25.77
2017-11-08T15:01:00.005Z,26.83
2017-11-08T15:03:27.900Z,26.50
2017-11-08T15:05:56.150Z,25.70
2017-11-08T15:08:24.258Z,25.13
2017-11-08T15:10:58.662Z,25.93
2017-11-08T15:13:26.923Z,26.20
2017-11-08T15:15:55.143Z,27.47
2017-11-08T15:18:22.607Z,25.03
2017-11-08T15:20:50.436Z,27.20
2017-11-08T15:23:19.868Z,28.57
2017-11-08T15:25:48.584Z,25.10
2017-11-08T15:28:16.069Z,23.27
2017-11-08T15:30:43.544Z,25.50
2017-11-08T15:33:11.772Z,27.60
2017-11-08T15:35:39.247Z,26.13
2017-11-08T15:38:06.756Z,24.73
2017-11-08T15:40:34.419Z,26.90
2017-11-08T15:43:02.408Z,25.27
2017-11-08T15:45:30.182Z,26.60
2017-11-08T15:47:57.633Z,26.90
2017-11-08T15:50:26.167Z,26.70
2017-11-08T15:52:53.624Z,26.07
2017-11-08T15:55:22.177Z,25.73
2017-11-08T15:57:51.306Z,26.13
2017-11-08T16:00:18.791Z,24.30
2017-11-08T16:02:46.253Z,24.40
2017-11-08T16:05:13.971Z,25.50
2017-11-08T16:07:42.754Z,25.50
2017-11-08T16:10:13.266Z,27.20
2017-11-08T16:12:44.571Z,25.23
2017-11-08T16:15:12.043Z,27.17
2017-11-08T16:17:39.531Z,25.70
2017-11-08T16:20:12.909Z,26.67
2017-11-08T16:22:40.380Z,27.43
2017-11-08T16:25:08.596Z,27.63
2017-11-08T16:27:36.118Z,28.13
2017-11-08T16:30:05.317Z,27.47
2017-11-08T16:32:33.562Z,27.23
2017-11-08T16:35:02.450Z,26.00
2017-11-08T16:37:29.906Z,27.17
2017-11-08T16:39:57.438Z,29.13
2017-11-08T16:42:26.559Z,25.07
2017-11-08T16:44:54.274Z,26.67
2017-11-08T16:47:21.723Z,27.70
2017-11-08T16:49:51.569Z,28.10
2017-11-08T16:52:19.952Z,27.37
2017-11-08T16:54:47.767Z,26.67
2017-11-08T16:57:17.242Z,26.23
2017-11-08T16:59:44.690Z,28.23
2017-11-08T17:02:12.139Z,28.17
2017-11-08T17:04:39.929Z,25.70
2017-11-08T17:07:08.495Z,28.33
2017-11-08T17:09:35.995Z,28.83
2017-11-08T17:12:04.947Z,26.03
2017-11-08T17:14:32.739Z,27.80
2017-11-08T17:17:01.019Z,30.40
2017-11-08T17:19:29.332Z,29.57
2017-11-08T17:21:56.815Z,29.50
2017-11-08T17:24:24.348Z,30.80
2017-11-08T17:26:51.832Z,31.57
2017-11-08T17:29:19.668Z,29.30
2017-11-08T17:31:47.164Z,31.03
2017-11-08T17:34:14.614Z,30.80
2017-11-08T17:36:42.124Z,32.67
2017-11-08T17:39:09.598Z,32.43
2017-11-08T17:41:37.198Z,30.13
2017-11-08T17:44:04.997Z,30.97
2017-11-08T17:46:32.891Z,30.47
2017-11-08T17:49:00.693Z,29.60
2017-11-08T17:51:29.210Z,32.70
2017-11-08T17:53:56.692Z,30.17
2017-11-08T17:56:24.667Z,29.33
2017-11-08T17:58:52.578Z,30.03
2017-11-08T18:01:20.025Z,30.33
2017-11-08T18:03:48.055Z,27.80
2017-11-08T18:06:15.521Z,28.37
2017-11-08T18:08:43.957Z,28.73
2017-11-08T18:11:12.167Z,30.33
2017-11-08T18:13:39.638Z,30.60
2017-11-08T18:16:07.090Z,30.33
2017-11-08T18:18:34.555Z,31.00
2017-11-08T18:21:03.103Z,29.37
2017-11-08T18:23:30.568Z,30.30
2017-11-08T18:25:58.007Z,29.60
2017-11-08T18:28:25.585Z,30.37
2017-11-08T18:30:53.035Z,29.80
2017-11-08T18:33:20.646Z,29.63
2017-11-08T18:35:48.930Z,31.97
2017-11-08T18:38:16.973Z,31.00
2017-11-08T18:40:44.454Z,30.33
2017-11-08T18:43:12.475Z,31.37
2017-11-08T18:45:40.280Z,31.20
2017-11-08T18:48:07.762Z,30.77
2017-11-08T18:50:36.168Z,29.83
2017-11-08T18:53:03.611Z,29.03
2017-11-08T18:55:32.755Z,30.60
2017-11-08T18:58:00.673Z,29.40
2017-11-08T19:00:28.136Z,29.47
2017-11-08T19:02:55.842Z,30.10
2017-11-08T19:05:23.631Z,29.33
2017-11-08T19:07:51.570Z,30.87
2017-11-08T19:10:19.055Z,30.70
2017-11-08T19:12:48.242Z,31.37
2017-11-08T19:15:15.715Z,29.23
2017-11-08T19:17:44.327Z,29.50
2017-11-08T19:20:11.827Z,29.63
2017-11-08T19:22:39.335Z,31.50
2017-11-08T19:25:06.822Z,28.87
2017-11-08T19:27:34.777Z,30.60
2017-11-08T19:30:02.243Z,29.67
2017-11-08T19:32:29.930Z,30.97
2017-11-08T19:34:57.431Z,30.37
2017-11-08T19:37:24.881Z,30.27
2017-11-08T19:39:53.112Z,30.97
2017-11-08T19:42:22.023Z,31.13
2017-11-08T19:44:50.283Z,28.27
2017-11-08T19:47:17.759Z,30.97
2017-11-08T19:49:45.949Z,29.10
2017-11-08T19:52:14.255Z,31.13
2017-11-08T19:54:42.562Z,28.27
2017-11-08T19:57:10.350Z,31.80
2017-11-08T19:59:38.871Z,32.70
2017-11-08T20:02:06.599Z,30.83
2017-11-08T20:04:35.361Z,29.43
2017-11-08T20:07:02.847Z,30.73
2017-11-08T20:09:31.672Z,30.23
2017-11-08T20:11:59.129Z,28.77
2017-11-08T20:14:26.688Z,29.73
2017-11-08T20:16:54.122Z,30.90
2017-11-08T20:19:21.926Z,29.90
2017-11-08T20:21:49.938Z,29.67
2017-11-08T20:24:17.639Z,29.97
2017-11-08T20:26:45.074Z,30.63
2017-11-08T20:29:12.578Z,30.80
2017-11-08T20:31:40.120Z,31.70
2017-11-08T20:34:07.617Z,28.43
2017-11-08T20:36:35.127Z,29.87
2017-11-08T20:39:02.685Z,28.10
2017-11-08T20:41:30.199Z,31.23
2017-11-08T20:43:59.234Z,28.67
2017-11-08T20:46:26.706Z,28.93
2017-11-08T20:48:54.607Z,29.77
2017-11-08T20:51:22.045Z,30.50
2017-11-08T20:53:49.513Z,29.70
2017-11-08T20:56:17.575Z,31.93
2017-11-08T20:58:45.447Z,30.87
2017-11-08T21:01:14.276Z,30.80
2017-11-08T21:03:42.504Z,30.20
2017-11-08T21:06:10.002Z,29.80
2017-11-08T21:08:38.654Z,29.60
2017-11-08T21:11:06.134Z,29.67
2017-11-08T21:13:35.299Z,29.37
2017-11-08T21:16:02.766Z,30.47
2017-11-08T21:18:30.388Z,29.77
2017-11-08T21:20:57.868Z,31.00
2017-11-08T21:23:25.378Z,28.07
2017-11-08T21:25:52.875Z,29.60
2017-11-08T21:28:20.339Z,28.57
2017-11-08T21:30:48.012Z,28.57
2017-11-08T21:33:16.972Z,30.87
2017-11-08T21:35:44.482Z,29.63
2017-11-08T21:38:12.695Z,28.53
2017-11-08T21:40:40.216Z,30.63
2017-11-08T21:43:09.178Z,30.60
2017-11-08T21:45:37.257Z,31.23
2017-11-08T21:48:04.726Z,31.00
2017-11-08T21:50:32.399Z,29.43
2017-11-08T21:53:00.609Z,29.63
2017-11-08T21:55:29.028Z,31.57
2017-11-08T21:57:57.086Z,30.07
2017-11-08T22:00:24.824Z,30.33
2017-11-08T22:02:52.816Z,29.93
2017-11-08T22:05:20.489Z,30.60
2017-11-08T22:07:48.317Z,29.03
2017-11-08T22:10:15.775Z,29.50
2017-11-08T22:12:43.367Z,32.30
2017-11-08T22:15:10.846Z,28.93
2017-11-08T22:17:38.324Z,34.97
2017-11-08T22:20:05.802Z,29.07
2017-11-08T22:22:33.604Z,30.33
2017-11-08T22:25:01.164Z,28.23
2017-11-08T22:27:28.643Z,28.97
2017-11-08T22:29:56.397Z,31.00
2017-11-08T22:32:23.991Z,31.40
2017-11-08T22:34:51.462Z,30.73
2017-11-08T22:37:18.963Z,32.43
2017-11-08T22:39:46.409Z,30.93
2017-11-08T22:42:14.692Z,29.77
2017-11-08T22:44:42.599Z,30.13
2017-11-08T22:47:10.124Z,28.37
2017-11-08T22:49:38.001Z,30.07
2017-11-08T22:52:05.473Z,31.13
2017-11-08T22:54:33.742Z,29.53
2017-11-08T22:57:11.831Z,31.60
2017-11-08T22:59:40.215Z,29.87
2017-11-08T23:02:07.716Z,29.93
2017-11-08T23:04:35.686Z,30.30
2017-11-08T23:07:03.447Z,29.27
2017-11-08T23:09:31.238Z,29.90
2017-11-08T23:11:58.739Z,29.70
2017-11-08T23:14:26.211Z,28.00
2017-11-08T23:16:54.538Z,30.93
2017-11-08T23:19:22.492Z,28.67
2017-11-08T23:21:50.014Z,28.90
2017-11-08T23:24:17.630Z,27.87
2017-11-08T23:26:45.083Z,29.60
2017-11-08T23:29:12.912Z,27.83
2017-11-08T23:31:40.927Z,30.37
2017-11-08T23:34:08.451Z,28.00
2017-11-08T23:36:36.923Z,29.03
2017-11-08T23:39:04.417Z,27.57
2017-11-08T23:41:33.679Z,29.20
2017-11-08T23:44:01.657Z,31.13
2017-11-08T23:46:29.284Z,30.10
2017-11-08T23:48:58.235Z,28.10
2017-11-08T23:51:26.066Z,28.80
2017-11-08T23:53:54.888Z,30.80
2017-11-08T23:56:28.533Z,28.07
2017-11-08T23:58:58.818Z,30.33
